Chester Depot, Vermont
Current Conditions -  °F | °C
As of 1:54 AM on Wednesday 22 Oct 2014 (Local Time) from KVSF Reporting Station
Overcast Overcast  
Wind Chill: 49°   Ceiling: 1600
Heat Index: 49°   Visibility: 10mi
Dew Point: 45°   Wind: 0mph
Humidity: 86%   Direction: NA
Pressure: 30.05"   Gusts: NA
Location:  43.36°N, 72.57°W
Report Text: KVSF 220554Z AUTO 00000KT 10SM OVC016 09/07 A3005 RMK AO2 SLP179 T00940072 10100 20094 58002
Loading
Personal Weather Stations






























Interactive Weather Map New forecast layout! Learn more

10-Day Weather Forecast

Advertisements
Track Severe Weather on mobile